Campanya meteocatpedra

Dades EMA Benissanet

?
?
Resum diari 22:30 TU
Dades diàries de l'estació meteorològica
Temperatura mitjana 22.9 °C
Temperatura màxima 32.6 °C 11:02 TU
Temperatura mínima 11.9 °C 4:50 TU
Humitat relativa mitjana 54%
Precipitació acumulada 0.0 mm
Ratxa màxima del vent (10 m) 38.9 km/h - 157º 14:44 TU
Irradiació solar global 30.6 MJ/m2

El tram horari està expressat en Temps Universal (TU). Cal sumar una hora en horari d'hivern i dues en horari d'estiu per passar a l'hora oficial.

Benissanet

Metadades estació meteorol´gica
Municipi Benissanet
Comarca Ribera d'Ebre
Altitud 32 m
Data alta 14.07.1993
Estat actual Operativa
Dades de període
Període
TU
TM
°C
TX
°C
TN
°C
HRM
%
PPT
mm
VVM (10 m)
km/h
DVM (10 m)
graus
VVX (10 m)
km/h
RS
W/m2
00:00 - 00:30 15.4 16.2 14.5 86 0.0 3.6 24 7.6 0
00:30 - 01:00 14.5 14.5 14.4 90 0.0 5.8 348 8.3 0
01:00 - 01:30 14.3 14.5 14.0 91 0.0 1.4 289 2.9 0
01:30 - 02:00 14.0 14.1 13.7 92 0.0 1.1 205 3.2 0
02:00 - 02:30 13.7 14.0 13.4 93 0.0 0.4 92 2.2 0
02:30 - 03:00 12.9 13.6 12.7 94 0.0 0.4 329 2.2 0
03:00 - 03:30 12.8 13.0 12.7 95 0.0 0.7 183 3.6 0
03:30 - 04:00 12.5 12.8 12.2 95 0.0 0.4 316 2.2 0
04:00 - 04:30 12.8 13.0 12.7 95 0.0 2.5 49 4.3 0
04:30 - 05:00 12.1 12.8 11.9 94 0.0 0.4 43 1.8 10
05:00 - 05:30 12.9 14.1 12.4 95 0.0 1.1 206 2.9 52
05:30 - 06:00 15.1 16.9 14.2 89 0.0 1.1 342 3.2 122
06:00 - 06:30 17.1 17.6 16.8 76 0.0 0.7 135 3.2 203
06:30 - 07:00 18.7 19.5 17.4 70 0.0 0.7 297 3.6 292
07:00 - 07:30 20.0 20.8 19.4 64 0.0 1.4 180 5.0 397
07:30 - 08:00 21.3 22.4 20.2 60 0.0 1.4 103 5.4 490
08:00 - 08:30 23.2 24.0 22.5 52 0.0 1.8 120 5.8 590
08:30 - 09:00 25.6 26.7 24.1 46 0.0 1.8 46 5.0 678
09:00 - 09:30 27.4 28.3 26.7 40 0.0 2.9 332 7.2 755
09:30 - 10:00 29.2 29.7 28.4 32 0.0 2.9 285 8.6 826
10:00 - 10:30 29.8 30.6 28.7 29 0.0 4.0 162 10.4 887
10:30 - 11:00 31.1 32.0 30.3 27 0.0 6.8 245 16.2 932
11:00 - 11:30 31.7 32.6 30.9 26 0.0 10.4 185 23.4 959
11:30 - 12:00 31.3 31.7 30.9 27 0.0 14.4 141 34.2 988
12:00 - 12:30 31.2 31.6 30.9 26 0.0 16.9 155 29.9 1.000
12:30 - 13:00 31.4 32.0 31.0 25 0.0 16.2 150 32.4 993
13:00 - 13:30 31.8 32.1 31.4 24 0.0 15.1 150 31.3 969
13:30 - 14:00 31.2 31.8 30.8 27 0.0 16.2 151 29.5 931
14:00 - 14:30 30.6 31.2 30.2 29 0.0 23.4 159 34.6 877
14:30 - 15:00 30.3 30.5 29.9 27 0.0 25.6 160 38.9 817
15:00 - 15:30 30.3 30.6 30.0 27 0.0 23.4 164 38.9 745
15:30 - 16:00 30.2 30.6 30.0 27 0.0 18.7 157 31.7 658
16:00 - 16:30 30.0 30.2 29.9 26 0.0 19.4 159 33.1 560
16:30 - 17:00 29.7 30.0 29.3 27 0.0 21.6 157 33.8 461
17:00 - 17:30 29.1 29.4 28.6 29 0.0 18.0 155 30.6 351
17:30 - 18:00 28.1 28.6 27.7 33 0.0 17.6 154 30.2 254
18:00 - 18:30 27.5 27.7 27.2 32 0.0 15.8 155 26.3 152
18:30 - 19:00 26.8 27.2 26.4 33 0.0 15.8 157 27.0 62
19:00 - 19:30 26.1 26.4 25.8 35 0.0 11.9 157 20.5 5
19:30 - 20:00 24.7 25.8 24.1 39 0.0 6.5 205 14.4 0
20:00 - 20:30 22.6 24.3 21.1 46 0.0 5.8 243 9.4 0
20:30 - 21:00 20.4 21.0 19.6 54 0.0 5.8 289 11.5 0
21:00 - 21:30 18.8 19.5 18.4 60 0.0 5.4 311 10.4 0
21:30 - 22:00 17.6 18.4 17.2 65 0.0 3.6 329 6.8 0
22:00 - 22:30 17.6 18.2 16.9 67 0.0 1.1 71 5.8 0
22:30 - 23:00 16.0 16.8 15.5 76 0.0 0.7 190 5.4 0

Les dades en taronja només han passat un control de qualitat automàtic. Resta pendent la seva validació definitiva.